sensor_id;sensor_type;location;lat;lon;timestamp;P1;durP1;ratioP1;P2;durP2;ratioP2
4857;SDS011;58975;51.978;8.472;2022-11-09T00:01:31;6.65;;;1.00;;
4857;SDS011;58975;51.978;8.472;2022-11-09T00:06:28;1.67;;;1.10;;
4857;SDS011;58975;51.978;8.472;2022-11-09T00:11:25;4.43;;;1.35;;
4857;SDS011;58975;51.978;8.472;2022-11-09T00:16:22;1.33;;;1.17;;
4857;SDS011;58975;51.978;8.472;2022-11-09T00:21:19;1.25;;;0.90;;
4857;SDS011;58975;51.978;8.472;2022-11-09T00:26:17;8.52;;;1.30;;
4857;SDS011;58975;51.978;8.472;2022-11-09T00:36:16;1.35;;;1.23;;
4857;SDS011;58975;51.978;8.472;2022-11-09T00:41:14;4.68;;;1.67;;
4857;SDS011;58975;51.978;8.472;2022-11-09T00:46:10;4.55;;;1.27;;
4857;SDS011;58975;51.978;8.472;2022-11-09T00:51:07;4.40;;;0.82;;
4857;SDS011;58975;51.978;8.472;2022-11-09T00:56:09;2.83;;;0.90;;
4857;SDS011;58975;51.978;8.472;2022-11-09T01:01:08;1.05;;;0.75;;
4857;SDS011;58975;51.978;8.472;2022-11-09T01:06:07;1.98;;;0.85;;
4857;SDS011;58975;51.978;8.472;2022-11-09T01:11:08;2.17;;;1.00;;
4857;SDS011;58975;51.978;8.472;2022-11-09T01:16:10;3.17;;;0.73;;
4857;SDS011;58975;51.978;8.472;2022-11-09T01:21:09;1.60;;;0.82;;
4857;SDS011;58975;51.978;8.472;2022-11-09T01:26:07;2.08;;;0.52;;
4857;SDS011;58975;51.978;8.472;2022-11-09T01:31:07;1.25;;;0.85;;
4857;SDS011;58975;51.978;8.472;2022-11-09T01:36:07;1.58;;;1.25;;
4857;SDS011;58975;51.978;8.472;2022-11-09T01:41:05;1.50;;;0.95;;
4857;SDS011;58975;51.978;8.472;2022-11-09T01:46:04;0.90;;;0.68;;
4857;SDS011;58975;51.978;8.472;2022-11-09T01:51:11;1.95;;;1.00;;
4857;SDS011;58975;51.978;8.472;2022-11-09T01:56:11;1.10;;;0.70;;
4857;SDS011;58975;51.978;8.472;2022-11-09T02:01:09;2.00;;;0.80;;
4857;SDS011;58975;51.978;8.472;2022-11-09T02:06:09;1.88;;;0.90;;
4857;SDS011;58975;51.978;8.472;2022-11-09T02:11:09;1.35;;;0.85;;
4857;SDS011;58975;51.978;8.472;2022-11-09T02:16:08;6.43;;;1.27;;
4857;SDS011;58975;51.978;8.472;2022-11-09T02:21:06;1.98;;;0.75;;
4857;SDS011;58975;51.978;8.472;2022-11-09T02:26:04;3.13;;;0.88;;
4857;SDS011;58975;51.978;8.472;2022-11-09T02:31:05;2.03;;;0.60;;
4857;SDS011;58975;51.978;8.472;2022-11-09T02:36:05;1.98;;;0.73;;
4857;SDS011;58975;51.978;8.472;2022-11-09T02:41:02;0.95;;;0.60;;
4857;SDS011;58975;51.978;8.472;2022-11-09T02:45:58;1.58;;;0.60;;
4857;SDS011;58975;51.978;8.472;2022-11-09T02:50:55;1.63;;;0.90;;
4857;SDS011;58975;51.978;8.472;2022-11-09T02:55:51;0.68;;;0.63;;
4857;SDS011;58975;51.978;8.472;2022-11-09T03:00:47;2.70;;;0.73;;
4857;SDS011;58975;51.978;8.472;2022-11-09T03:05:44;2.20;;;0.90;;
4857;SDS011;58975;51.978;8.472;2022-11-09T03:10:40;2.17;;;1.00;;
4857;SDS011;58975;51.978;8.472;2022-11-09T03:15:36;1.27;;;0.80;;
4857;SDS011;58975;51.978;8.472;2022-11-09T03:20:33;2.35;;;0.73;;
4857;SDS011;58975;51.978;8.472;2022-11-09T03:25:29;0.93;;;0.77;;
4857;SDS011;58975;51.978;8.472;2022-11-09T03:30:26;1.80;;;0.95;;
4857;SDS011;58975;51.978;8.472;2022-11-09T03:35:23;3.50;;;1.02;;
4857;SDS011;58975;51.978;8.472;2022-11-09T03:40:20;0.98;;;0.75;;
4857;SDS011;58975;51.978;8.472;2022-11-09T03:45:16;2.13;;;1.20;;
4857;SDS011;58975;51.978;8.472;2022-11-09T03:50:13;1.65;;;0.75;;
4857;SDS011;58975;51.978;8.472;2022-11-09T03:55:11;1.75;;;0.90;;
4857;SDS011;58975;51.978;8.472;2022-11-09T04:00:09;3.97;;;0.85;;
4857;SDS011;58975;51.978;8.472;2022-11-09T04:05:06;2.95;;;0.77;;
4857;SDS011;58975;51.978;8.472;2022-11-09T04:10:04;4.05;;;0.80;;
4857;SDS011;58975;51.978;8.472;2022-11-09T04:15:01;3.63;;;1.17;;
4857;SDS011;58975;51.978;8.472;2022-11-09T04:19:58;3.72;;;0.80;;
4857;SDS011;58975;51.978;8.472;2022-11-09T04:24:54;3.75;;;1.05;;
4857;SDS011;58975;51.978;8.472;2022-11-09T04:29:50;2.28;;;1.02;;
4857;SDS011;58975;51.978;8.472;2022-11-09T04:34:47;2.38;;;1.00;;
4857;SDS011;58975;51.978;8.472;2022-11-09T04:39:43;2.70;;;0.90;;
4857;SDS011;58975;51.978;8.472;2022-11-09T04:44:39;3.92;;;1.00;;
4857;SDS011;58975;51.978;8.472;2022-11-09T04:49:36;2.03;;;1.00;;
4857;SDS011;58975;51.978;8.472;2022-11-09T04:54:32;3.33;;;0.98;;
4857;SDS011;58975;51.978;8.472;2022-11-09T04:59:29;3.65;;;1.25;;
4857;SDS011;58975;51.978;8.472;2022-11-09T05:04:25;4.47;;;1.20;;
4857;SDS011;58975;51.978;8.472;2022-11-09T05:09:21;3.78;;;0.85;;
4857;SDS011;58975;51.978;8.472;2022-11-09T05:14:17;1.13;;;0.68;;
4857;SDS011;58975;51.978;8.472;2022-11-09T05:19:14;3.20;;;0.90;;
4857;SDS011;58975;51.978;8.472;2022-11-09T05:24:10;2.25;;;1.15;;
4857;SDS011;58975;51.978;8.472;2022-11-09T05:29:08;5.88;;;1.17;;
4857;SDS011;58975;51.978;8.472;2022-11-09T05:34:06;3.47;;;1.17;;
4857;SDS011;58975;51.978;8.472;2022-11-09T05:39:02;1.98;;;1.05;;
4857;SDS011;58975;51.978;8.472;2022-11-09T05:43:59;1.83;;;1.02;;
4857;SDS011;58975;51.978;8.472;2022-11-09T05:48:55;2.72;;;0.88;;
4857;SDS011;58975;51.978;8.472;2022-11-09T05:53:51;4.85;;;0.98;;
4857;SDS011;58975;51.978;8.472;2022-11-09T05:58:48;2.50;;;0.82;;
4857;SDS011;58975;51.978;8.472;2022-11-09T06:03:44;5.53;;;1.30;;
4857;SDS011;58975;51.978;8.472;2022-11-09T06:08:41;4.05;;;0.93;;
4857;SDS011;58975;51.978;8.472;2022-11-09T06:13:37;3.40;;;1.10;;
4857;SDS011;58975;51.978;8.472;2022-11-09T06:18:34;2.55;;;1.00;;
4857;SDS011;58975;51.978;8.472;2022-11-09T06:23:31;1.90;;;0.90;;
4857;SDS011;58975;51.978;8.472;2022-11-09T06:28:28;1.97;;;0.90;;
4857;SDS011;58975;51.978;8.472;2022-11-09T06:33:25;1.33;;;0.77;;
4857;SDS011;58975;51.978;8.472;2022-11-09T06:38:21;3.67;;;1.15;;
4857;SDS011;58975;51.978;8.472;2022-11-09T06:43:18;3.80;;;1.50;;
4857;SDS011;58975;51.978;8.472;2022-11-09T06:48:15;3.28;;;0.82;;
4857;SDS011;58975;51.978;8.472;2022-11-09T06:53:12;4.30;;;1.33;;
4857;SDS011;58975;51.978;8.472;2022-11-09T06:58:11;2.85;;;0.77;;
4857;SDS011;58975;51.978;8.472;2022-11-09T07:03:15;1.38;;;0.98;;
4857;SDS011;58975;51.978;8.472;2022-11-09T07:08:13;5.13;;;1.35;;
4857;SDS011;58975;51.978;8.472;2022-11-09T07:13:10;3.67;;;1.30;;
4857;SDS011;58975;51.978;8.472;2022-11-09T07:18:08;6.53;;;1.45;;
4857;SDS011;58975;51.978;8.472;2022-11-09T07:23:06;3.78;;;1.65;;
4857;SDS011;58975;51.978;8.472;2022-11-09T07:28:04;3.47;;;1.23;;
4857;SDS011;58975;51.978;8.472;2022-11-09T07:33:03;4.93;;;1.55;;
4857;SDS011;58975;51.978;8.472;2022-11-09T07:38:06;3.45;;;1.30;;
4857;SDS011;58975;51.978;8.472;2022-11-09T07:43:03;4.45;;;1.35;;
4857;SDS011;58975;51.978;8.472;2022-11-09T07:48:02;3.53;;;1.50;;
4857;SDS011;58975;51.978;8.472;2022-11-09T07:53:00;4.85;;;1.55;;
4857;SDS011;58975;51.978;8.472;2022-11-09T07:58:01;2.95;;;1.10;;
4857;SDS011;58975;51.978;8.472;2022-11-09T08:02:59;4.65;;;0.93;;
4857;SDS011;58975;51.978;8.472;2022-11-09T08:07:56;3.80;;;1.33;;
4857;SDS011;58975;51.978;8.472;2022-11-09T08:12:55;1.65;;;0.90;;
4857;SDS011;58975;51.978;8.472;2022-11-09T08:17:53;3.33;;;0.98;;
4857;SDS011;58975;51.978;8.472;2022-11-09T08:22:49;5.90;;;1.25;;
4857;SDS011;58975;51.978;8.472;2022-11-09T08:27:46;3.15;;;1.00;;
4857;SDS011;58975;51.978;8.472;2022-11-09T08:32:42;4.55;;;1.23;;
4857;SDS011;58975;51.978;8.472;2022-11-09T08:37:40;4.43;;;1.00;;
4857;SDS011;58975;51.978;8.472;2022-11-09T08:42:36;5.82;;;1.63;;
4857;SDS011;58975;51.978;8.472;2022-11-09T08:47:32;5.45;;;1.25;;
4857;SDS011;58975;51.978;8.472;2022-11-09T08:52:29;3.22;;;0.90;;
4857;SDS011;58975;51.978;8.472;2022-11-09T08:57:26;5.95;;;1.20;;
4857;SDS011;58975;51.978;8.472;2022-11-09T09:02:23;5.82;;;0.90;;
4857;SDS011;58975;51.978;8.472;2022-11-09T09:07:20;6.03;;;1.27;;
4857;SDS011;58975;51.978;8.472;2022-11-09T09:12:16;3.20;;;1.00;;
4857;SDS011;58975;51.978;8.472;2022-11-09T09:17:13;1.53;;;1.23;;
4857;SDS011;58975;51.978;8.472;2022-11-09T09:22:10;2.97;;;0.85;;
4857;SDS011;58975;51.978;8.472;2022-11-09T09:27:06;3.55;;;1.42;;
4857;SDS011;58975;51.978;8.472;2022-11-09T09:32:03;4.28;;;1.08;;
4857;SDS011;58975;51.978;8.472;2022-11-09T09:36:59;6.63;;;0.93;;
4857;SDS011;58975;51.978;8.472;2022-11-09T09:41:59;4.70;;;0.80;;
4857;SDS011;58975;51.978;8.472;2022-11-09T09:47:09;4.72;;;1.13;;
4857;SDS011;58975;51.978;8.472;2022-11-09T09:52:15;4.00;;;0.80;;
4857;SDS011;58975;51.978;8.472;2022-11-09T09:57:20;4.03;;;0.95;;
4857;SDS011;58975;51.978;8.472;2022-11-09T10:02:20;5.40;;;1.10;;
4857;SDS011;58975;51.978;8.472;2022-11-09T10:07:37;3.67;;;0.85;;
4857;SDS011;58975;51.978;8.472;2022-11-09T10:13:04;6.47;;;1.00;;
4857;SDS011;58975;51.978;8.472;2022-11-09T10:28:41;5.80;;;0.93;;
4857;SDS011;58975;51.978;8.472;2022-11-09T10:34:02;2.50;;;1.02;;
4857;SDS011;58975;51.978;8.472;2022-11-09T10:39:10;5.47;;;1.23;;
4857;SDS011;58975;51.978;8.472;2022-11-09T10:44:11;2.03;;;0.80;;
4857;SDS011;58975;51.978;8.472;2022-11-09T10:49:19;4.28;;;1.10;;
4857;SDS011;58975;51.978;8.472;2022-11-09T10:54:20;3.00;;;1.00;;
4857;SDS011;58975;51.978;8.472;2022-11-09T10:59:34;1.27;;;0.88;;
4857;SDS011;58975;51.978;8.472;2022-11-09T11:04:34;5.10;;;0.85;;
4857;SDS011;58975;51.978;8.472;2022-11-09T11:09:31;3.63;;;0.90;;
4857;SDS011;58975;51.978;8.472;2022-11-09T11:24:28;2.85;;;1.00;;
4857;SDS011;58975;51.978;8.472;2022-11-09T11:35:13;1.85;;;0.88;;
4857;SDS011;58975;51.978;8.472;2022-11-09T11:40:16;4.53;;;1.20;;
4857;SDS011;58975;51.978;8.472;2022-11-09T12:06:44;2.72;;;0.95;;
4857;SDS011;58975;51.978;8.472;2022-11-09T12:11:56;2.25;;;0.73;;
4857;SDS011;58975;51.978;8.472;2022-11-09T12:22:58;6.93;;;1.10;;
4857;SDS011;58975;51.978;8.472;2022-11-09T12:33:21;6.30;;;0.70;;
4857;SDS011;58975;51.978;8.472;2022-11-09T12:38:39;2.33;;;0.63;;
4857;SDS011;58975;51.978;8.472;2022-11-09T12:43:53;3.60;;;1.13;;
4857;SDS011;58975;51.978;8.472;2022-11-09T12:48:55;2.08;;;0.90;;
4857;SDS011;58975;51.978;8.472;2022-11-09T12:53:55;3.15;;;1.13;;
4857;SDS011;58975;51.978;8.472;2022-11-09T12:58:53;2.72;;;0.80;;
4857;SDS011;58975;51.978;8.472;2022-11-09T13:04:18;2.25;;;0.60;;
4857;SDS011;58975;51.978;8.472;2022-11-09T13:09:21;2.05;;;0.70;;
4857;SDS011;58975;51.978;8.472;2022-11-09T13:19:47;4.82;;;0.90;;
4857;SDS011;58975;51.978;8.472;2022-11-09T13:24:54;6.25;;;0.95;;
4857;SDS011;58975;51.978;8.472;2022-11-09T13:29:54;2.20;;;0.60;;
4857;SDS011;58975;51.978;8.472;2022-11-09T13:34:52;4.70;;;0.73;;
4857;SDS011;58975;51.978;8.472;2022-11-09T13:39:50;3.60;;;0.70;;
4857;SDS011;58975;51.978;8.472;2022-11-09T13:44:46;2.45;;;0.47;;
4857;SDS011;58975;51.978;8.472;2022-11-09T13:49:45;11.68;;;0.93;;
4857;SDS011;58975;51.978;8.472;2022-11-09T13:54:44;1.65;;;0.60;;
4857;SDS011;58975;51.978;8.472;2022-11-09T13:59:45;4.18;;;0.93;;
4857;SDS011;58975;51.978;8.472;2022-11-09T14:04:44;6.22;;;1.45;;
4857;SDS011;58975;51.978;8.472;2022-11-09T14:09:45;7.05;;;0.70;;
4857;SDS011;58975;51.978;8.472;2022-11-09T14:14:47;1.80;;;0.50;;
4857;SDS011;58975;51.978;8.472;2022-11-09T14:20:13;5.50;;;0.90;;
4857;SDS011;58975;51.978;8.472;2022-11-09T14:25:20;3.03;;;0.82;;
4857;SDS011;58975;51.978;8.472;2022-11-09T14:30:19;3.35;;;1.02;;
4857;SDS011;58975;51.978;8.472;2022-11-09T14:40:29;4.57;;;0.70;;
4857;SDS011;58975;51.978;8.472;2022-11-09T14:45:27;5.20;;;0.77;;
4857;SDS011;58975;51.978;8.472;2022-11-09T14:50:25;2.65;;;0.82;;
4857;SDS011;58975;51.978;8.472;2022-11-09T14:55:24;4.80;;;0.93;;
4857;SDS011;58975;51.978;8.472;2022-11-09T15:00:26;1.67;;;0.90;;
4857;SDS011;58975;51.978;8.472;2022-11-09T15:05:30;3.13;;;1.00;;
4857;SDS011;58975;51.978;8.472;2022-11-09T15:10:30;9.45;;;1.20;;
4857;SDS011;58975;51.978;8.472;2022-11-09T15:15:28;6.27;;;1.80;;
4857;SDS011;58975;51.978;8.472;2022-11-09T15:20:27;7.90;;;1.27;;
4857;SDS011;58975;51.978;8.472;2022-11-09T15:35:55;4.28;;;1.60;;
4857;SDS011;58975;51.978;8.472;2022-11-09T15:40:53;6.10;;;1.60;;
4857;SDS011;58975;51.978;8.472;2022-11-09T15:45:50;6.70;;;1.00;;
4857;SDS011;58975;51.978;8.472;2022-11-09T15:50:46;6.78;;;1.10;;
4857;SDS011;58975;51.978;8.472;2022-11-09T15:55:43;2.75;;;0.77;;
4857;SDS011;58975;51.978;8.472;2022-11-09T16:00:40;4.43;;;0.95;;
4857;SDS011;58975;51.978;8.472;2022-11-09T16:05:37;4.30;;;1.10;;
4857;SDS011;58975;51.978;8.472;2022-11-09T16:10:33;3.47;;;1.20;;
4857;SDS011;58975;51.978;8.472;2022-11-09T16:15:33;5.03;;;1.33;;
4857;SDS011;58975;51.978;8.472;2022-11-09T16:20:31;5.53;;;1.00;;
4857;SDS011;58975;51.978;8.472;2022-11-09T16:25:27;3.13;;;0.80;;
4857;SDS011;58975;51.978;8.472;2022-11-09T16:30:24;8.63;;;1.10;;
4857;SDS011;58975;51.978;8.472;2022-11-09T16:35:20;7.05;;;1.60;;
4857;SDS011;58975;51.978;8.472;2022-11-09T16:40:23;8.93;;;1.52;;
4857;SDS011;58975;51.978;8.472;2022-11-09T16:45:19;6.80;;;1.40;;
4857;SDS011;58975;51.978;8.472;2022-11-09T16:50:16;7.57;;;1.00;;
4857;SDS011;58975;51.978;8.472;2022-11-09T16:55:13;6.32;;;0.90;;
4857;SDS011;58975;51.978;8.472;2022-11-09T17:00:09;6.70;;;1.73;;
4857;SDS011;58975;51.978;8.472;2022-11-09T17:05:07;8.13;;;1.42;;
4857;SDS011;58975;51.978;8.472;2022-11-09T17:10:04;7.15;;;0.88;;
4857;SDS011;58975;51.978;8.472;2022-11-09T17:15:00;4.50;;;1.17;;
4857;SDS011;58975;51.978;8.472;2022-11-09T17:19:56;7.80;;;1.33;;
4857;SDS011;58975;51.978;8.472;2022-11-09T17:24:53;4.72;;;0.98;;
4857;SDS011;58975;51.978;8.472;2022-11-09T17:29:49;7.65;;;1.10;;
4857;SDS011;58975;51.978;8.472;2022-11-09T17:34:46;10.57;;;2.08;;
4857;SDS011;58975;51.978;8.472;2022-11-09T17:39:42;2.30;;;1.02;;
4857;SDS011;58975;51.978;8.472;2022-11-09T17:44:39;5.47;;;1.63;;
4857;SDS011;58975;51.978;8.472;2022-11-09T17:49:35;5.78;;;1.15;;
4857;SDS011;58975;51.978;8.472;2022-11-09T17:54:31;3.97;;;0.93;;
4857;SDS011;58975;51.978;8.472;2022-11-09T17:59:32;5.05;;;1.10;;
4857;SDS011;58975;51.978;8.472;2022-11-09T18:04:29;7.97;;;1.25;;
4857;SDS011;58975;51.978;8.472;2022-11-09T18:09:25;5.28;;;1.33;;
4857;SDS011;58975;51.978;8.472;2022-11-09T18:14:37;4.03;;;1.00;;
4857;SDS011;58975;51.978;8.472;2022-11-09T18:19:34;5.70;;;1.10;;
4857;SDS011;58975;51.978;8.472;2022-11-09T18:24:30;4.32;;;1.60;;
4857;SDS011;58975;51.978;8.472;2022-11-09T18:29:28;4.40;;;1.60;;
4857;SDS011;58975;51.978;8.472;2022-11-09T18:34:24;5.45;;;1.13;;
4857;SDS011;58975;51.978;8.472;2022-11-09T18:39:20;6.72;;;1.33;;
4857;SDS011;58975;51.978;8.472;2022-11-09T18:44:17;6.78;;;1.25;;
4857;SDS011;58975;51.978;8.472;2022-11-09T18:49:13;5.75;;;1.33;;
4857;SDS011;58975;51.978;8.472;2022-11-09T18:54:10;4.32;;;0.98;;
4857;SDS011;58975;51.978;8.472;2022-11-09T18:59:08;5.68;;;1.48;;
4857;SDS011;58975;51.978;8.472;2022-11-09T19:04:05;9.38;;;1.80;;
4857;SDS011;58975;51.978;8.472;2022-11-09T19:09:02;5.55;;;1.95;;
4857;SDS011;58975;51.978;8.472;2022-11-09T19:14:17;12.18;;;1.92;;
4857;SDS011;58975;51.978;8.472;2022-11-09T19:19:14;6.53;;;1.20;;
4857;SDS011;58975;51.978;8.472;2022-11-09T19:24:11;5.20;;;0.95;;
4857;SDS011;58975;51.978;8.472;2022-11-09T19:29:09;6.22;;;1.40;;
4857;SDS011;58975;51.978;8.472;2022-11-09T19:34:06;7.32;;;1.38;;
4857;SDS011;58975;51.978;8.472;2022-11-09T19:39:03;7.03;;;1.48;;
4857;SDS011;58975;51.978;8.472;2022-11-09T19:43:59;2.65;;;0.90;;
4857;SDS011;58975;51.978;8.472;2022-11-09T19:48:56;6.22;;;2.10;;
4857;SDS011;58975;51.978;8.472;2022-11-09T19:53:54;4.82;;;1.30;;
4857;SDS011;58975;51.978;8.472;2022-11-09T19:58:52;8.63;;;1.70;;
4857;SDS011;58975;51.978;8.472;2022-11-09T20:03:50;13.93;;;1.42;;
4857;SDS011;58975;51.978;8.472;2022-11-09T20:08:48;4.90;;;2.10;;
4857;SDS011;58975;51.978;8.472;2022-11-09T20:13:46;8.25;;;1.50;;
4857;SDS011;58975;51.978;8.472;2022-11-09T20:18:42;6.05;;;1.85;;
4857;SDS011;58975;51.978;8.472;2022-11-09T20:23:39;4.88;;;1.75;;
4857;SDS011;58975;51.978;8.472;2022-11-09T20:28:35;10.65;;;1.77;;
4857;SDS011;58975;51.978;8.472;2022-11-09T20:33:32;7.13;;;1.60;;
4857;SDS011;58975;51.978;8.472;2022-11-09T20:38:29;10.25;;;2.40;;
4857;SDS011;58975;51.978;8.472;2022-11-09T20:43:25;11.88;;;1.83;;
4857;SDS011;58975;51.978;8.472;2022-11-09T20:48:22;9.02;;;1.50;;
4857;SDS011;58975;51.978;8.472;2022-11-09T20:53:38;5.80;;;1.73;;
4857;SDS011;58975;51.978;8.472;2022-11-09T20:58:35;3.58;;;1.33;;
4857;SDS011;58975;51.978;8.472;2022-11-09T21:03:31;5.95;;;1.35;;
4857;SDS011;58975;51.978;8.472;2022-11-09T21:08:28;4.95;;;1.27;;
4857;SDS011;58975;51.978;8.472;2022-11-09T21:13:25;10.93;;;1.30;;
4857;SDS011;58975;51.978;8.472;2022-11-09T21:18:22;8.05;;;1.30;;
4857;SDS011;58975;51.978;8.472;2022-11-09T21:23:19;8.25;;;1.38;;
4857;SDS011;58975;51.978;8.472;2022-11-09T21:28:15;7.53;;;1.50;;
4857;SDS011;58975;51.978;8.472;2022-11-09T21:33:30;8.10;;;1.98;;
4857;SDS011;58975;51.978;8.472;2022-11-09T21:38:27;6.35;;;1.77;;
4857;SDS011;58975;51.978;8.472;2022-11-09T21:43:23;5.95;;;2.58;;
4857;SDS011;58975;51.978;8.472;2022-11-09T21:48:19;13.85;;;3.38;;
4857;SDS011;58975;51.978;8.472;2022-11-09T21:53:16;8.32;;;1.92;;
4857;SDS011;58975;51.978;8.472;2022-11-09T21:58:13;11.68;;;1.90;;
4857;SDS011;58975;51.978;8.472;2022-11-09T22:03:09;11.98;;;1.63;;
4857;SDS011;58975;51.978;8.472;2022-11-09T22:08:06;7.30;;;1.50;;
4857;SDS011;58975;51.978;8.472;2022-11-09T22:13:02;11.27;;;2.20;;
4857;SDS011;58975;51.978;8.472;2022-11-09T22:18:18;9.57;;;1.67;;
4857;SDS011;58975;51.978;8.472;2022-11-09T22:23:33;6.50;;;1.30;;
4857;SDS011;58975;51.978;8.472;2022-11-09T22:28:30;3.63;;;1.45;;
4857;SDS011;58975;51.978;8.472;2022-11-09T22:33:27;14.77;;;2.35;;
4857;SDS011;58975;51.978;8.472;2022-11-09T22:38:25;6.78;;;1.88;;
4857;SDS011;58975;51.978;8.472;2022-11-09T22:43:22;6.53;;;1.60;;
4857;SDS011;58975;51.978;8.472;2022-11-09T22:48:19;7.43;;;1.63;;
4857;SDS011;58975;51.978;8.472;2022-11-09T22:53:15;7.15;;;1.88;;
4857;SDS011;58975;51.978;8.472;2022-11-09T22:58:11;14.10;;;2.13;;
4857;SDS011;58975;51.978;8.472;2022-11-09T23:03:08;8.15;;;1.45;;
4857;SDS011;58975;51.978;8.472;2022-11-09T23:08:04;7.22;;;2.33;;
4857;SDS011;58975;51.978;8.472;2022-11-09T23:13:01;6.38;;;1.77;;
4857;SDS011;58975;51.978;8.472;2022-11-09T23:17:58;8.48;;;1.88;;
4857;SDS011;58975;51.978;8.472;2022-11-09T23:23:13;10.68;;;1.95;;
4857;SDS011;58975;51.978;8.472;2022-11-09T23:28:10;8.57;;;2.30;;
4857;SDS011;58975;51.978;8.472;2022-11-09T23:33:08;4.40;;;1.52;;
4857;SDS011;58975;51.978;8.472;2022-11-09T23:38:04;7.03;;;1.90;;
4857;SDS011;58975;51.978;8.472;2022-11-09T23:43:05;9.32;;;2.35;;
4857;SDS011;58975;51.978;8.472;2022-11-09T23:48:03;11.57;;;2.50;;
4857;SDS011;58975;51.978;8.472;2022-11-09T23:53:00;10.67;;;1.87;;
4857;SDS011;58975;51.978;8.472;2022-11-09T23:57:59;7.97;;;1.85;;
